Time;durP1;ratioP1;P1;durP2;ratioP2;P2;SDS_P1;SDS_P2;PMS_P1;PMS_P2;Temp;Humidity;BMP_temperature;BMP_pressure;BME280_temperature;BME280_humidity;BME280_pressure;Samples;Min_cycle;Max_cycle;Signal;HPM_P1;HPM_P2
2021/01/18 00:01:40;;;;;;;27.15;10.20;;;;;;;2.28;40.50;151714.08;1702596;84;21190;-59
2021/01/18 00:04:13;;;;;;;28.10;9.60;;;;;;;2.30;39.04;151719.28;1702631;84;21274;-60
2021/01/18 00:06:46;;;;;;;19.48;8.88;;;;;;;2.22;38.20;151697.17;1702450;84;21183;-59
2021/01/18 00:09:19;;;;;;;24.37;9.18;;;;;;;2.36;38.08;151733.59;1694105;84;21259;-59
2021/01/18 00:11:52;;;;;;;28.50;9.63;;;;;;;2.50;37.95;151771.28;1702413;84;21191;-60
2021/01/18 00:14:24;;;;;;;29.63;10.85;;;;;;;2.38;38.04;151738.80;1702816;84;21302;-59
2021/01/18 00:16:57;;;;;;;27.37;10.38;;;;;;;2.34;37.77;151728.37;1674409;86;21348;-59
2021/01/18 00:19:31;;;;;;;27.70;10.68;;;;;;;2.28;37.79;151712.80;1696286;84;21235;-60
2021/01/18 00:22:03;;;;;;;32.03;12.30;;;;;;;2.30;38.04;151718.00;1702412;84;21187;-59
2021/01/18 00:24:36;;;;;;;31.17;11.90;;;;;;;2.31;37.70;151720.61;1702363;84;21171;-59
2021/01/18 00:27:10;;;;;;;30.35;10.72;;;;;;;2.23;37.71;151699.78;1702595;84;21270;-59
2021/01/18 00:29:43;;;;;;;31.37;11.00;;;;;;;2.13;38.82;151675.11;1679139;84;21203;-59
2021/01/18 00:32:16;;;;;;;28.87;9.75;;;;;;;2.04;39.18;151650.39;1676264;84;21757;-60
2021/01/18 00:34:49;;;;;;;28.27;9.10;;;;;;;1.94;38.99;151625.67;1674347;84;21195;-59
2021/01/18 00:37:22;;;;;;;27.62;10.60;;;;;;;1.94;38.39;151625.67;1702552;84;21222;-60
2021/01/18 00:39:54;;;;;;;22.07;9.25;;;;;;;1.89;37.91;151612.70;1702560;84;21300;-60
2021/01/18 00:42:27;;;;;;;21.17;9.03;;;;;;;1.70;37.99;151560.69;1702765;84;21224;-59
2021/01/18 00:45:00;;;;;;;24.92;11.22;;;;;;;1.64;38.02;151546.39;1702720;84;21690;-60
2021/01/18 00:47:33;;;;;;;28.80;11.00;;;;;;;1.62;37.64;151541.19;1702442;84;21203;-59
2021/01/18 00:50:07;;;;;;;24.65;10.75;;;;;;;1.48;37.73;151503.52;1702222;83;21257;-60
2021/01/18 00:52:44;;;;;;;22.55;9.90;;;;;;;1.45;37.87;151497.03;1702585;84;22048;-59
2021/01/18 00:55:20;;;;;;;31.17;11.83;;;;;;;1.58;37.61;151529.50;1722342;83;21664;-59
2021/01/18 00:57:55;;;;;;;22.25;9.38;;;;;;;1.61;37.53;151537.31;1690776;85;21269;-59
2021/01/18 01:00:29;;;;;;;24.10;10.05;;;;;;;1.55;37.52;151523.02;1730347;82;21412;-59
2021/01/18 01:03:02;;;;;;;26.27;9.98;;;;;;;1.51;37.52;151511.33;1716676;83;21291;-59
2021/01/18 01:05:35;;;;;;;31.23;10.93;;;;;;;1.48;37.49;151504.84;1716826;83;21189;-60
2021/01/18 01:08:08;;;;;;;25.30;10.82;;;;;;;1.45;37.41;151495.72;1716740;83;21217;-59
2021/01/18 01:10:41;;;;;;;31.55;10.93;;;;;;;1.42;37.41;151487.95;1716918;83;21184;-59
2021/01/18 01:13:14;;;;;;;31.37;10.60;;;;;;;1.35;37.68;151469.73;1716659;83;21328;-59
2021/01/18 01:15:47;;;;;;;28.95;12.50;;;;;;;1.46;37.58;151499.64;1716749;83;21181;-59
2021/01/18 01:18:20;;;;;;;30.52;9.00;;;;;;;1.59;37.70;151533.42;1716847;83;21173;-59
2021/01/18 01:20:53;;;;;;;23.67;9.00;;;;;;;1.65;37.58;151549.00;1716766;83;21265;-60
2021/01/18 01:23:26;;;;;;;22.62;8.80;;;;;;;1.61;37.38;151538.64;1717034;83;21752;-60
2021/01/18 01:25:59;;;;;;;22.05;8.20;;;;;;;1.56;37.30;151525.63;1716905;83;21221;-60
2021/01/18 01:28:32;;;;;;;15.43;6.92;;;;;;;1.45;37.25;151497.03;1716771;83;21391;-60
2021/01/18 01:31:05;;;;;;;22.87;7.62;;;;;;;1.29;37.34;151455.45;1716532;83;21177;-60
2021/01/18 01:33:38;;;;;;;15.95;6.42;;;;;;;1.07;37.16;151398.31;1716863;82;21707;-59
2021/01/18 01:36:11;;;;;;;21.42;7.17;;;;;;;0.88;37.11;151346.38;1706323;83;21223;-60
2021/01/18 01:38:44;;;;;;;16.05;7.97;;;;;;;0.70;37.06;151299.61;1737681;82;21369;-60
2021/01/18 01:41:17;;;;;;;20.45;8.05;;;;;;;0.58;37.49;151268.50;1732683;82;21155;-60
2021/01/18 01:43:50;;;;;;;19.87;7.62;;;;;;;0.55;37.51;151261.98;1716574;83;21389;-60
2021/01/18 01:46:23;;;;;;;18.90;7.08;;;;;;;0.51;37.64;151250.31;1727606;82;21229;-60
2021/01/18 01:48:55;;;;;;;22.37;8.25;;;;;;;0.48;37.79;151243.83;1722435;83;21812;-60
2021/01/18 01:51:29;;;;;;;22.13;8.48;;;;;;;0.64;37.84;151284.06;1727805;82;21303;-60
2021/01/18 01:54:02;;;;;;;20.62;8.18;;;;;;;0.60;38.02;151273.66;1716770;83;21178;-59
2021/01/18 01:56:35;;;;;;;22.95;9.00;;;;;;;0.65;37.92;151286.66;1717066;83;21205;-60
2021/01/18 01:59:09;;;;;;;22.65;9.13;;;;;;;0.70;37.92;151300.94;1716909;83;21276;-60
2021/01/18 02:01:43;;;;;;;24.07;8.40;;;;;;;0.81;37.83;151328.22;1731722;82;21245;-60
2021/01/18 02:04:15;;;;;;;24.15;9.78;;;;;;;0.86;37.71;151341.19;1716875;83;21825;-60
2021/01/18 02:06:48;;;;;;;25.00;8.50;;;;;;;0.87;37.89;151345.05;1716821;83;21233;-60
2021/01/18 02:09:21;;;;;;;30.35;11.75;;;;;;;0.71;37.70;151302.22;1716691;83;21277;-60
2021/01/18 02:11:55;;;;;;;23.62;8.35;;;;;;;0.54;38.32;151259.38;1716417;83;21162;-60
2021/01/18 02:14:35;;;;;;;33.28;10.58;;;;;;;0.60;38.14;151273.66;1716879;83;21233;-59
2021/01/18 02:17:19;;;;;;;;;;;;;;;0.46;39.04;151237.36;1719311;83;21158;-60
2021/01/18 02:20:19;;;;;;;23.80;9.53;;;;;;;0.39;38.67;151220.48;1716646;83;20180;-60
2021/01/18 02:23:19;;;;;;;24.30;9.70;;;;;;;0.22;38.13;151175.06;1734833;81;21203;-60
2021/01/18 02:25:58;;;;;;;35.85;11.30;;;;;;;0.23;37.92;151177.66;1737992;82;21175;-60
2021/01/18 02:29:07;;;;;;;32.10;12.05;;;;;;;0.27;38.12;151188.00;1718584;83;21360;-60
2021/01/18 02:32:31;;;;;;;33.73;10.85;;;;;;;0.34;38.10;151206.20;1692014;85;21421;-60
2021/01/18 02:35:32;;;;;;;29.82;11.38;;;;;;;0.38;38.10;151217.88;1737577;82;21314;-60
2021/01/18 02:38:40;;;;;;;31.20;11.53;;;;;;;0.41;37.70;151224.34;1722631;83;21311;-60
2021/01/18 02:41:48;;;;;;;31.48;11.18;;;;;;;0.34;37.31;151206.20;1722320;83;21217;-60
2021/01/18 02:44:21;;;;;;;35.33;10.58;;;;;;;0.25;37.59;151182.81;1695431;83;21190;-60
2021/01/18 02:46:54;;;;;;;29.25;11.08;;;;;;;0.24;37.69;151180.20;1716619;83;22153;-60
2021/01/18 02:49:27;;;;;;;32.30;11.28;;;;;;;0.18;37.41;151164.67;1717022;83;21251;-60
2021/01/18 02:52:10;;;;;;;34.25;10.38;;;;;;;0.12;37.40;151149.06;1716525;83;21227;-60
2021/01/18 02:54:43;;;;;;;37.53;12.35;;;;;;;0.12;37.45;151149.06;1702909;83;21324;-59
2021/01/18 02:57:17;;;;;;;34.95;11.73;;;;;;;0.20;37.37;151169.86;1715901;83;21347;-60
2021/01/18 02:59:52;;;;;;;35.63;11.60;;;;;;;0.17;37.37;151162.06;1714516;83;21197;-59
2021/01/18 03:02:46;;;;;;;37.17;11.45;;;;;;;0.24;37.35;151180.20;1707116;84;21861;-60
2021/01/18 03:05:55;;;;;;;27.80;11.20;;;;;;;0.29;37.35;151194.48;1696619;84;21241;-60
2021/01/18 03:08:37;;;;;;;36.40;13.45;;;;;;;0.25;37.39;151182.81;1707112;84;21332;-60
2021/01/18 03:11:31;;;;;;;33.53;11.18;;;;;;;0.25;37.38;151184.12;1707028;84;21360;-60
2021/01/18 03:14:15;;;;;;;33.05;11.50;;;;;;;0.26;37.23;151186.73;1707057;84;21229;-60
2021/01/18 03:16:49;;;;;;;34.75;12.93;;;;;;;0.28;37.19;151191.94;1707209;84;21712;-60
2021/01/18 03:19:42;;;;;;;34.78;11.83;;;;;;;0.24;37.27;151180.20;1680112;84;21367;-60
2021/01/18 03:22:28;;;;;;;31.90;11.15;;;;;;;0.26;37.14;151185.41;1707034;84;21197;-60
2021/01/18 03:25:06;;;;;;;35.75;11.78;;;;;;;0.25;37.06;151182.81;1707120;84;21194;-60
2021/01/18 03:27:53;;;;;;;37.98;13.05;;;;;;;0.25;37.02;151182.81;1707113;84;21288;-60
2021/01/18 03:30:26;;;;;;;39.48;13.32;;;;;;;0.16;37.07;151159.47;1707003;84;21233;-60
2021/01/18 03:32:59;;;;;;;35.68;12.50;;;;;;;0.18;37.27;151165.94;1706964;84;21276;-60
2021/01/18 03:35:31;;;;;;;32.13;11.53;;;;;;;0.21;37.29;151173.73;1707040;84;21233;-61
2021/01/18 03:38:06;;;;;;;31.75;11.97;;;;;;;0.27;37.22;151189.34;1706566;84;21228;-60
2021/01/18 03:40:39;;;;;;;40.20;13.68;;;;;;;0.33;37.19;151204.88;1706946;84;21246;-60
2021/01/18 03:43:12;;;;;;;37.93;13.58;;;;;;;0.46;37.33;151237.36;1706995;84;21194;-60
2021/01/18 03:45:45;;;;;;;33.75;12.47;;;;;;;0.64;37.38;151285.33;1702915;84;21169;-60
2021/01/18 03:48:18;;;;;;;33.23;12.00;;;;;;;0.66;37.96;151290.53;1707097;84;21229;-59
2021/01/18 03:50:51;;;;;;;35.68;11.75;;;;;;;0.72;37.19;151306.14;1705218;84;21233;-60
2021/01/18 03:53:25;;;;;;;42.88;13.38;;;;;;;0.61;37.82;151277.58;1696813;83;21270;-61
2021/01/18 03:55:57;;;;;;;40.65;11.88;;;;;;;0.61;37.15;151277.58;1722908;83;21249;-60
2021/01/18 03:58:30;;;;;;;31.60;12.10;;;;;;;0.60;37.18;151273.66;1722847;83;21235;-59
2021/01/18 04:01:03;;;;;;;37.15;12.05;;;;;;;0.48;36.94;151242.50;1722909;83;21229;-60
2021/01/18 04:03:37;;;;;;;30.35;12.00;;;;;;;0.49;37.77;151246.44;1723008;83;21194;-60
2021/01/18 04:06:10;;;;;;;38.35;12.50;;;;;;;0.50;37.18;151249.03;1722816;83;21175;-60
2021/01/18 04:08:43;;;;;;;31.17;11.65;;;;;;;0.50;37.46;151249.03;1706263;83;21461;-60
2021/01/18 04:11:16;;;;;;;33.25;11.95;;;;;;;0.53;37.34;151255.50;1723098;83;21388;-59
2021/01/18 04:13:49;;;;;;;35.48;13.25;;;;;;;0.54;37.14;151258.11;1723043;83;21714;-60
2021/01/18 04:16:22;;;;;;;33.67;11.18;;;;;;;0.55;36.96;151261.98;1723149;83;21954;-59
2021/01/18 04:18:55;;;;;;;38.67;11.03;;;;;;;0.61;37.04;151276.25;1722985;83;21245;-60
2021/01/18 04:21:28;;;;;;;34.92;12.45;;;;;;;0.64;36.88;151284.06;1723133;83;21305;-60
2021/01/18 04:24:01;;;;;;;33.45;11.48;;;;;;;0.63;37.01;151281.47;1722867;83;21234;-59
2021/01/18 04:26:34;;;;;;;36.83;12.68;;;;;;;0.59;37.71;151272.38;1723094;83;21225;-60
2021/01/18 04:29:07;;;;;;;45.12;13.72;;;;;;;0.54;37.96;151259.38;1722833;83;21215;-59
2021/01/18 04:31:43;;;;;;;31.97;12.80;;;;;;;0.44;37.26;151233.42;1722247;83;21386;-59
2021/01/18 04:34:15;;;;;;;37.90;13.40;;;;;;;0.37;37.24;151213.95;1691754;85;21324;-59
2021/01/18 04:36:48;;;;;;;42.33;15.05;;;;;;;0.47;37.52;151241.23;1732997;81;21440;-59
2021/01/18 04:39:21;;;;;;;38.33;14.63;;;;;;;0.50;37.49;151247.70;1716285;83;21356;-60
2021/01/18 04:41:54;;;;;;;45.17;15.48;;;;;;;0.51;37.55;151251.63;1716929;83;21172;-60
2021/01/18 04:44:28;;;;;;;44.42;15.50;;;;;;;0.49;37.41;151246.44;1716987;83;21254;-59
2021/01/18 04:47:00;;;;;;;53.05;15.90;;;;;;;0.48;37.77;151242.50;1716696;83;21219;-60
2021/01/18 04:49:33;;;;;;;54.60;15.50;;;;;;;0.41;37.87;151225.62;1722504;82;21334;-60
2021/01/18 04:52:07;;;;;;;47.35;18.98;;;;;;;0.32;37.40;151201.00;1672249;85;21690;-60
2021/01/18 04:54:40;;;;;;;60.03;18.17;;;;;;;0.27;37.18;151188.00;1691254;84;21400;-60
2021/01/18 04:57:17;;;;;;;56.77;16.82;;;;;;;0.21;37.16;151172.47;1689884;85;21943;-60
2021/01/18 04:59:51;;;;;;;57.25;18.35;;;;;;;0.20;37.78;151171.14;1691088;85;21767;-60
2021/01/18 05:02:25;;;;;;;72.08;19.05;;;;;;;0.16;37.57;151159.47;1690977;85;21295;-59
2021/01/18 05:04:59;;;;;;;59.95;18.48;;;;;;;0.11;37.66;151147.80;1706210;84;21428;-60
2021/01/18 05:07:59;;;;;;;63.38;18.48;;;;;;;-0.02;37.25;151114.06;1671428;84;21420;-65
2021/01/18 05:10:32;;;;;;;;;;;;;;;-0.06;37.13;151101.13;1688015;84;21301;-61
2021/01/18 05:13:05;;;;;;;51.48;17.95;;;;;;;-0.07;37.33;151098.52;1699307;82;20180;-60
2021/01/18 05:15:38;;;;;;;54.73;21.57;;;;;;;0.03;37.12;151125.72;1689754;85;21363;-62
2021/01/18 05:18:11;;;;;;;48.23;16.67;;;;;;;-0.14;37.12;151080.33;1689343;85;21331;-63
2021/01/18 05:20:44;;;;;;;59.05;17.73;;;;;;;-0.09;37.55;151093.31;1689511;85;21197;-64
2021/01/18 05:23:18;;;;;;;60.98;18.65;;;;;;;-0.19;37.24;151068.66;1688193;84;21253;-61
2021/01/18 05:25:50;;;;;;;52.05;16.05;;;;;;;-0.29;37.21;151041.45;1690327;85;21182;-59
2021/01/18 05:28:24;;;;;;;55.88;18.90;;;;;;;-0.35;36.99;151025.88;1685406;83;21875;-58
2021/01/18 05:30:57;;;;;;;60.15;19.35;;;;;;;-0.33;36.92;151032.34;1690548;85;21712;-59
2021/01/18 05:33:30;;;;;;;56.50;18.42;;;;;;;-0.38;37.11;151019.39;1691075;85;21212;-59
2021/01/18 05:36:03;;;;;;;59.80;19.73;;;;;;;-0.43;37.38;151006.41;1673736;84;21360;-59
2021/01/18 05:38:35;;;;;;;52.15;17.07;;;;;;;-0.42;37.86;151009.00;1668083;85;21218;-59
2021/01/18 05:41:08;;;;;;;59.55;17.90;;;;;;;-0.44;37.98;151003.81;1715423;82;21202;-59
2021/01/18 05:43:41;;;;;;;44.35;17.70;;;;;;;-0.40;38.08;151012.87;1640602;85;21316;-60
2021/01/18 05:46:14;;;;;;;52.00;17.57;;;;;;;-0.37;37.96;151022.00;1690350;85;21214;-59
2021/01/18 05:48:47;;;;;;;60.08;18.62;;;;;;;-0.41;37.79;151011.59;1660386;85;21404;-60
2021/01/18 05:51:23;;;;;;;55.40;22.07;;;;;;;-0.51;37.57;150985.67;1702348;84;21725;-59
2021/01/18 05:53:56;;;;;;;56.10;21.42;;;;;;;-0.62;40.02;150957.16;1705096;84;21328;-60
2021/01/18 05:56:44;;;;;;;56.65;19.95;;;;;;;-0.73;39.37;150928.64;1678915;85;21862;-59
2021/01/18 05:59:25;;;;;;;76.65;21.90;;;;;;;-0.73;39.31;150928.64;1660259;85;21862;-59
2021/01/18 06:01:57;;;;;;;;;;;;;;;-0.78;38.37;150915.66;1657648;85;21351;-59
2021/01/18 06:04:30;;;;;;;65.72;19.70;;;;;;;-0.71;37.72;150933.84;1716932;83;20279;-58
2021/01/18 06:07:04;;;;;;;67.58;20.25;;;;;;;-0.70;37.71;150936.44;1702648;83;21309;-59
2021/01/18 06:09:45;;;;;;;70.15;21.42;;;;;;;-0.66;37.52;150945.50;1700606;83;21216;-58
2021/01/18 06:12:23;;;;;;;58.02;20.40;;;;;;;-0.66;37.08;150946.77;1715330;83;21321;-58
2021/01/18 06:15:15;;;;;;;68.10;20.23;;;;;;;-0.71;36.99;150933.84;1694103;83;21636;-58
2021/01/18 06:17:51;;;;;;;80.22;23.35;;;;;;;-0.25;36.41;151053.13;1675754;85;21368;-60
2021/01/18 06:20:28;;;;;;;70.25;22.82;;;;;;;-0.14;36.23;151081.66;1706232;84;21445;-59
2021/01/18 06:23:01;;;;;;;77.00;20.52;;;;;;;-0.20;36.38;151066.06;1702211;82;21325;-62
2021/01/18 06:25:37;;;;;;;79.32;23.73;;;;;;;-0.11;36.61;151088.13;1688656;83;21361;-64
2021/01/18 06:28:31;;;;;;;78.42;25.48;;;;;;;-0.06;36.53;151101.13;1689745;85;21435;-63
2021/01/18 06:31:06;;;;;;;68.15;22.58;;;;;;;-0.02;36.58;151112.78;1689163;85;21244;-59
2021/01/18 06:33:49;;;;;;;65.50;24.25;;;;;;;0.22;36.35;151175.06;1688876;83;21201;-60
2021/01/18 06:36:26;;;;;;;78.40;24.35;;;;;;;0.22;36.48;151176.34;1683406;83;21344;-60
2021/01/18 06:39:06;;;;;;;77.50;25.92;;;;;;;0.34;36.33;151207.48;1684400;82;21384;-58
2021/01/18 06:41:39;;;;;;;76.97;24.02;;;;;;;-0.13;36.57;151084.25;1689740;85;21402;-61
2021/01/18 06:44:13;;;;;;;60.70;21.95;;;;;;;-0.28;36.97;151045.33;1689792;83;21340;-61
2021/01/18 06:46:46;;;;;;;64.72;22.35;;;;;;;-0.27;37.32;151047.92;1689079;83;21238;-60
2021/01/18 06:49:19;;;;;;;58.87;20.82;;;;;;;0.43;36.85;151230.83;1688673;83;21210;-59
2021/01/18 06:51:53;;;;;;;55.23;19.73;;;;;;;0.57;36.42;151265.91;1688418;85;21257;-59
2021/01/18 06:54:29;;;;;;;61.37;20.62;;;;;;;0.49;36.32;151246.44;1688867;85;21206;-60
2021/01/18 06:57:26;;;;;;;53.87;20.27;;;;;;;0.46;36.64;151237.36;1687869;84;21767;-60
2021/01/18 07:00:02;;;;;;;64.58;20.00;;;;;;;0.55;37.05;151260.70;1675924;85;21751;-63
2021/01/18 07:02:41;;;;;;;59.53;20.10;;;;;;;0.91;37.41;151355.47;1661976;85;21281;-59
2021/01/18 07:05:16;;;;;;;57.98;17.77;;;;;;;1.13;37.12;151412.59;1661204;83;21288;-60
2021/01/18 07:07:54;;;;;;;54.48;17.87;;;;;;;1.19;37.09;151429.48;1685615;83;21250;-64
2021/01/18 07:10:27;;;;;;;60.52;20.12;;;;;;;0.64;37.26;151284.06;1685827;83;21257;-59
2021/01/18 07:13:00;;;;;;;58.40;21.23;;;;;;;0.44;37.73;151232.16;1686029;83;22427;-60
2021/01/18 07:15:39;;;;;;;77.80;22.55;;;;;;;0.49;38.03;151245.11;1659110;85;21177;-59
2021/01/18 07:18:13;;;;;;;58.78;18.55;;;;;;;0.56;37.94;151264.58;1685019;85;21260;-59
2021/01/18 07:20:48;;;;;;;46.18;16.97;;;;;;;0.63;37.98;151282.78;1686871;85;21579;-57
2021/01/18 07:23:31;;;;;;;57.43;17.77;;;;;;;0.60;38.01;151273.66;1685780;83;21241;-59
2021/01/18 07:26:15;;;;;;;52.03;19.50;;;;;;;0.62;37.88;151280.19;1685018;85;21288;-61
2021/01/18 07:28:52;;;;;;;53.20;17.57;;;;;;;0.71;37.82;151302.22;1685886;85;21198;-58
2021/01/18 07:31:27;;;;;;;55.83;19.00;;;;;;;0.81;38.31;151329.50;1686429;85;21229;-58
2021/01/18 07:34:00;;;;;;;54.73;19.70;;;;;;;1.00;38.36;151378.81;1686098;83;21245;-59
2021/01/18 07:36:33;;;;;;;52.70;18.90;;;;;;;1.25;38.06;151445.09;1686279;83;21297;-57
2021/01/18 07:39:27;;;;;;;55.20;19.20;;;;;;;1.36;38.14;151472.34;1686279;83;21252;-60
2021/01/18 07:42:01;;;;;;;43.50;15.70;;;;;;;1.48;37.94;151504.84;1662305;85;21240;-59
2021/01/18 07:44:45;;;;;;;46.58;18.48;;;;;;;1.66;38.95;151550.31;1685857;83;21237;-59
2021/01/18 07:47:18;;;;;;;56.35;20.30;;;;;;;2.02;38.81;151646.50;1681713;83;21209;-59
2021/01/18 07:49:51;;;;;;;56.08;18.35;;;;;;;2.43;38.35;151751.83;1662383;85;21792;-60
2021/01/18 07:52:31;;;;;;;70.92;22.75;;;;;;;2.67;37.62;151816.81;1665006;85;21221;-58
2021/01/18 07:55:05;;;;;;;57.40;21.93;;;;;;;3.08;37.31;151923.52;1685837;84;21720;-60
2021/01/18 07:57:39;;;;;;;58.15;19.32;;;;;;;3.14;37.54;151937.84;1662165;82;21198;-60
2021/01/18 08:00:26;;;;;;;61.15;21.12;;;;;;;3.20;37.91;151954.75;1691466;82;21339;-60
2021/01/18 08:03:26;;;;;;;62.30;21.93;;;;;;;3.22;38.12;151958.64;1682929;82;21609;-61
2021/01/18 08:06:08;;;;;;;60.80;21.07;;;;;;;3.13;39.14;151936.50;1679146;84;21399;-59
2021/01/18 08:08:41;;;;;;;60.78;21.52;;;;;;;2.94;39.73;151887.08;1680216;84;21352;-58
2021/01/18 08:11:19;;;;;;;71.10;21.07;;;;;;;3.02;40.83;151907.87;1682696;84;22016;-62
2021/01/18 08:14:00;;;;;;;66.00;22.87;;;;;;;3.06;37.67;151917.03;1681466;82;21910;-61
2021/01/18 08:16:41;;;;;;;66.70;24.00;;;;;;;3.17;38.54;151945.66;1692387;82;22180;-62
2021/01/18 08:19:26;;;;;;;60.25;20.32;;;;;;;3.33;38.94;151988.59;1681315;83;21463;-65
2021/01/18 08:22:09;;;;;;;65.62;23.18;;;;;;;3.50;41.43;152032.84;1681616;84;21855;-65
2021/01/18 08:24:52;;;;;;;60.10;18.92;;;;;;;3.81;40.88;152114.87;1680024;84;21281;-69
2021/01/18 08:27:51;;;;;;;55.12;18.30;;;;;;;4.08;42.72;152183.89;1681649;84;21921;-60
2021/01/18 08:30:39;;;;;;;46.55;16.52;;;;;;;4.24;39.06;152226.87;1657333;82;21237;-60
2021/01/18 08:33:18;;;;;;;43.83;17.27;;;;;;;4.50;38.78;152294.64;1687170;82;22136;-65
2021/01/18 08:35:55;;;;;;;42.13;13.88;;;;;;;4.54;40.09;152306.38;1680811;84;21426;-65
2021/01/18 08:38:30;;;;;;;34.30;13.22;;;;;;;4.90;38.87;152400.22;1687105;84;21249;-65
2021/01/18 08:41:08;;;;;;;27.52;10.78;;;;;;;4.82;39.38;152379.37;1688940;82;21899;-65
2021/01/18 08:44:03;;;;;;;30.35;12.75;;;;;;;5.35;37.02;152517.56;1687889;84;21399;-67
2021/01/18 08:46:37;;;;;;;36.95;12.58;;;;;;;5.22;36.54;152483.66;1684334;84;21253;-66
2021/01/18 08:49:29;;;;;;;31.33;11.30;;;;;;;5.68;36.70;152603.66;1689074;82;21391;-64
2021/01/18 08:52:02;;;;;;;31.90;11.83;;;;;;;5.84;36.59;152646.81;1684003;84;21962;-62
2021/01/18 08:54:40;;;;;;;32.00;11.63;;;;;;;6.23;36.68;152747.28;1680665;84;21240;-62
2021/01/18 08:57:23;;;;;;;34.18;11.12;;;;;;;6.55;37.10;152832.11;1681905;84;21415;-64
2021/01/18 09:00:15;;;;;;;28.02;12.68;;;;;;;6.70;36.42;152872.64;1682139;84;21213;-63
2021/01/18 09:02:50;;;;;;;39.67;12.90;;;;;;;7.00;38.07;152949.70;1689358;85;21189;-63
2021/01/18 09:05:25;;;;;;;39.27;13.50;;;;;;;7.33;37.59;153037.20;1688752;85;21814;-64
2021/01/18 09:07:58;;;;;;;33.28;13.18;;;;;;;7.77;38.01;153152.22;1689537;85;21202;-69
2021/01/18 09:10:32;;;;;;;36.58;13.15;;;;;;;8.15;36.07;153254.27;1682676;85;21205;-66
2021/01/18 09:13:09;;;;;;;44.38;14.53;;;;;;;8.28;36.87;153286.94;1682518;83;21182;-67
2021/01/18 09:15:45;;;;;;;30.88;12.28;;;;;;;8.28;37.15;153288.28;1688770;83;21229;-69
2021/01/18 09:18:18;;;;;;;42.23;13.90;;;;;;;8.26;34.57;153283.03;1688942;85;21249;-62
2021/01/18 09:20:51;;;;;;;35.95;12.50;;;;;;;8.12;35.85;153246.36;1689452;85;21765;-61
2021/01/18 09:23:28;;;;;;;35.75;14.05;;;;;;;8.23;36.48;153273.89;1688837;85;21174;-67
2021/01/18 09:26:12;;;;;;;36.20;13.50;;;;;;;8.63;38.28;153379.84;1689275;83;21719;-67
2021/01/18 09:28:54;;;;;;;38.23;14.10;;;;;;;9.18;34.96;153523.78;1689475;85;21232;-65
2021/01/18 09:31:26;;;;;;;34.92;13.85;;;;;;;9.77;35.50;153678.30;1689289;85;21240;-66
2021/01/18 09:34:11;;;;;;;40.45;13.88;;;;;;;10.07;34.41;153759.55;1688728;83;21796;-66
2021/01/18 09:36:47;;;;;;;35.30;14.75;;;;;;;10.33;34.09;153826.41;1689105;83;21193;-65
2021/01/18 09:39:23;;;;;;;37.03;13.90;;;;;;;10.38;33.57;153840.83;1684867;83;22004;-66
2021/01/18 09:41:59;;;;;;;34.03;13.25;;;;;;;10.15;35.40;153780.55;1685332;83;22006;-64
2021/01/18 09:44:33;;;;;;;36.25;13.75;;;;;;;9.78;32.13;153682.22;1688919;83;21293;-67
2021/01/18 09:47:06;;;;;;;37.13;14.25;;;;;;;10.04;34.74;153751.73;1660024;83;21403;-66
2021/01/18 09:49:39;;;;;;;31.17;13.13;;;;;;;10.24;35.11;153804.12;1688723;85;21277;-68
2021/01/18 09:52:15;;;;;;;31.30;12.40;;;;;;;10.27;32.19;153810.66;1689015;85;21202;-66
2021/01/18 09:54:50;;;;;;;39.70;13.40;;;;;;;10.78;34.87;153944.38;1660921;85;21407;-65
2021/01/18 09:57:22;;;;;;;35.03;13.88;;;;;;;11.25;37.38;154068.92;1689745;85;21226;-66
2021/01/18 09:59:57;;;;;;;35.50;13.32;;;;;;;11.54;32.82;154145.08;1667854;84;21855;-64
2021/01/18 10:02:29;;;;;;;34.75;13.62;;;;;;;11.64;33.57;154171.31;1688706;85;21950;-69
2021/01/18 10:05:03;;;;;;;38.60;14.15;;;;;;;11.59;32.14;154158.17;1688601;85;21660;-66
2021/01/18 10:07:41;;;;;;;34.13;13.15;;;;;;;11.76;33.29;154205.44;1689044;85;21296;-66
2021/01/18 10:10:15;;;;;;;35.38;14.05;;;;;;;11.98;33.46;154261.83;1682713;83;21744;-65
2021/01/18 10:12:54;;;;;;;31.33;14.35;;;;;;;11.60;31.96;154160.80;1684601;83;21265;-66
2021/01/18 10:15:28;;;;;;;41.80;16.50;;;;;;;10.57;32.53;153890.61;1689249;85;21237;-66
2021/01/18 10:18:01;;;;;;;36.85;13.48;;;;;;;10.26;32.72;153809.37;1689189;85;21226;-63
2021/01/18 10:20:36;;;;;;;37.35;14.35;;;;;;;10.09;31.93;153764.80;1689579;83;21241;-68
2021/01/18 10:23:14;;;;;;;31.12;12.40;;;;;;;10.00;32.18;153741.22;1688915;85;21177;-64
2021/01/18 10:25:48;;;;;;;44.85;15.90;;;;;;;10.43;32.46;153853.91;1691004;85;21216;-67
2021/01/18 10:28:20;;;;;;;36.42;15.08;;;;;;;10.56;32.07;153887.98;1690659;85;21270;-65
2021/01/18 10:30:53;;;;;;;33.23;13.22;;;;;;;11.08;33.83;154025.64;1686163;83;21788;-68
2021/01/18 10:33:28;;;;;;;35.15;14.68;;;;;;;10.95;32.80;153991.55;1698617;83;21205;-66
2021/01/18 10:36:00;;;;;;;32.10;13.62;;;;;;;11.18;31.71;154051.88;1709613;83;21348;-67
2021/01/18 10:38:38;;;;;;;30.80;13.53;;;;;;;11.62;32.63;154166.06;1691557;85;21324;-67
2021/01/18 10:41:11;;;;;;;29.42;13.20;;;;;;;11.87;32.79;154232.95;1691565;85;21334;-65
2021/01/18 10:43:46;;;;;;;31.23;13.53;;;;;;;11.84;31.84;154226.41;1664177;84;21744;-66
2021/01/18 10:46:19;;;;;;;29.65;13.53;;;;;;;11.53;32.90;154142.45;1664958;85;22411;-67
2021/01/18 10:48:58;;;;;;;28.83;13.38;;;;;;;11.15;32.86;154044.03;1668302;85;21748;-66
2021/01/18 10:51:31;;;;;;;31.80;12.53;;;;;;;10.82;32.34;153956.16;1709275;84;21911;-67
2021/01/18 10:54:05;;;;;;;26.87;12.25;;;;;;;10.78;34.07;153947.00;1691753;85;21420;-67
2021/01/18 10:56:41;;;;;;;31.42;13.62;;;;;;;11.06;35.22;154019.09;1689806;85;21271;-67
2021/01/18 10:59:14;;;;;;;34.10;13.25;;;;;;;11.17;32.06;154047.95;1705439;84;21314;-67
2021/01/18 11:02:07;;;;;;;30.62;13.05;;;;;;;11.08;33.42;154025.64;1713896;82;21229;-66
2021/01/18 11:04:47;;;;;;;28.83;12.73;;;;;;;10.76;33.53;153939.13;1714586;83;21329;-66
2021/01/18 11:07:19;;;;;;;40.05;13.43;;;;;;;10.10;32.63;153766.14;1686611;84;21280;-67
2021/01/18 11:09:59;;;;;;;36.85;12.90;;;;;;;9.79;33.66;153684.84;1718555;83;21252;-66
2021/01/18 11:12:33;;;;;;;;;;;;;;;9.35;33.34;153568.31;1714726;84;21386;-66
2021/01/18 11:15:09;;;;;;;30.60;11.28;;;;;;;9.10;33.64;153502.86;1714066;83;20220;-67
2021/01/18 11:17:43;;;;;;;39.70;13.78;;;;;;;8.98;34.12;153471.45;1686905;85;21241;-66
2021/01/18 11:20:19;;;;;;;37.42;14.05;;;;;;;8.78;33.23;153419.11;1688346;85;21256;-68
2021/01/18 11:22:53;;;;;;;28.65;12.23;;;;;;;8.65;34.05;153383.75;1639271;85;21241;-66
2021/01/18 11:25:27;;;;;;;44.38;16.40;;;;;;;8.60;34.42;153371.98;1713089;83;21320;-67
2021/01/18 11:28:14;;;;;;;42.15;15.20;;;;;;;8.37;34.09;153311.81;1686871;85;21708;-68
2021/01/18 11:30:47;;;;;;;30.75;12.07;;;;;;;8.67;35.53;153390.33;1688276;85;21220;-65
2021/01/18 11:33:20;;;;;;;33.95;12.45;;;;;;;8.92;34.21;153455.72;1690104;84;21724;-66
2021/01/18 11:35:53;;;;;;;31.23;13.32;;;;;;;9.15;36.00;153517.25;1653863;85;21241;-70
2021/01/18 11:38:26;;;;;;;34.25;13.35;;;;;;;9.22;34.52;153535.56;1713831;83;22446;-67
2021/01/18 11:40:58;;;;;;;36.05;12.13;;;;;;;9.31;34.89;153557.83;1686629;85;21738;-67
2021/01/18 11:43:33;;;;;;;35.80;12.88;;;;;;;9.41;35.63;153585.34;1717483;83;21713;-71
2021/01/18 11:46:06;;;;;;;37.95;11.57;;;;;;;9.41;34.36;153584.00;1714688;83;21179;-62
2021/01/18 11:48:39;;;;;;;31.33;11.48;;;;;;;9.27;36.20;153547.34;1686599;85;21289;-69
2021/01/18 11:51:13;;;;;;;29.23;11.88;;;;;;;8.98;33.75;153472.73;1655761;85;21214;-66
2021/01/18 11:53:48;;;;;;;26.12;11.68;;;;;;;8.44;33.67;153328.81;1688418;84;21244;-66
2021/01/18 11:56:23;;;;;;;28.52;11.33;;;;;;;8.19;37.85;153263.41;1688355;85;21811;-64
2021/01/18 11:58:56;;;;;;;34.15;11.83;;;;;;;7.88;36.44;153180.97;1662455;85;21800;-60
2021/01/18 12:01:29;;;;;;;26.55;10.55;;;;;;;7.58;34.28;153102.56;1688403;85;21693;-61